createdAt,value
2018-08-23T00:01:28.475Z,23.00
2018-08-23T00:04:02.830Z,23.00
2018-08-23T00:06:31.990Z,23.10
2018-08-23T00:09:01.315Z,22.90
2018-08-23T00:11:32.423Z,22.40
2018-08-23T00:14:01.580Z,22.00
2018-08-23T00:16:36.004Z,21.80
2018-08-23T00:19:05.338Z,22.10
2018-08-23T00:21:41.084Z,22.00
2018-08-23T00:24:26.435Z,21.90
2018-08-23T00:26:57.851Z,22.00
2018-08-23T00:29:33.254Z,21.90
2018-08-23T00:32:03.791Z,21.70
2018-08-23T00:34:35.237Z,21.70
2018-08-23T00:37:05.170Z,21.50
2018-08-23T00:39:34.332Z,21.40
2018-08-23T00:42:05.717Z,21.40
2018-08-23T00:44:54.458Z,21.50
2018-08-23T00:47:28.360Z,21.60
2018-08-23T00:49:57.498Z,21.70
2018-08-23T00:52:50.315Z,21.80
2018-08-23T00:55:25.654Z,21.90
2018-08-23T00:57:54.854Z,22.20
2018-08-23T01:00:25.410Z,22.40
2018-08-23T01:03:02.159Z,22.40
2018-08-23T01:05:35.165Z,22.40
2018-08-23T01:08:05.217Z,22.60
2018-08-23T01:10:34.272Z,22.60
2018-08-23T01:13:03.983Z,22.60
2018-08-23T01:15:33.387Z,22.60
2018-08-23T01:18:16.729Z,22.60
2018-08-23T01:20:47.042Z,22.50
2018-08-23T01:23:16.222Z,22.30
2018-08-23T01:25:46.470Z,22.50
2018-08-23T01:28:16.006Z,22.50
2018-08-23T01:30:45.994Z,22.30
2018-08-23T01:33:22.154Z,22.00
2018-08-23T01:35:52.082Z,22.10
2018-08-23T01:38:21.254Z,22.00
2018-08-23T01:40:55.696Z,22.10
2018-08-23T01:43:24.859Z,22.20
2018-08-23T01:45:54.006Z,22.30
2018-08-23T01:48:23.198Z,22.40
2018-08-23T01:50:52.387Z,22.30
2018-08-23T01:53:23.442Z,22.40
2018-08-23T01:55:52.594Z,22.40
2018-08-23T01:58:21.786Z,22.30
2018-08-23T02:01:12.538Z,22.30
2018-08-23T02:03:41.961Z,22.10
2018-08-23T02:06:11.138Z,22.20
2018-08-23T02:08:40.235Z,22.20
2018-08-23T02:11:09.488Z,22.20
2018-08-23T02:13:38.684Z,22.20
2018-08-23T02:16:07.906Z,22.30
2018-08-23T02:18:37.014Z,22.30
2018-08-23T02:21:10.387Z,22.30
2018-08-23T02:23:59.061Z,22.30
2018-08-23T02:26:34.993Z,22.30
2018-08-23T02:29:04.149Z,22.30
2018-08-23T02:31:33.305Z,22.20
2018-08-23T02:34:02.551Z,22.20
2018-08-23T02:36:31.709Z,22.20
2018-08-23T02:39:02.204Z,22.10
2018-08-23T02:41:31.498Z,22.00
2018-08-23T02:44:00.710Z,21.90
2018-08-23T02:46:31.876Z,21.90
2018-08-23T02:49:01.086Z,21.80
2018-08-23T02:51:42.065Z,21.70
2018-08-23T02:54:13.340Z,21.70
2018-08-23T02:56:47.618Z,21.60
2018-08-23T02:59:16.753Z,21.80
2018-08-23T03:01:47.218Z,21.80
2018-08-23T03:04:18.381Z,21.70
2018-08-23T03:06:56.253Z,21.60
2018-08-23T03:09:35.070Z,21.70
2018-08-23T03:12:09.413Z,21.60
2018-08-23T03:14:39.355Z,21.50
2018-08-23T03:17:13.890Z,21.50
2018-08-23T03:20:01.351Z,21.40
2018-08-23T03:22:31.590Z,21.30
2018-08-23T03:25:02.858Z,21.40
2018-08-23T03:27:32.354Z,21.30
2018-08-23T03:30:02.374Z,21.50
2018-08-23T03:32:31.875Z,21.40
2018-08-23T03:35:01.509Z,21.40
2018-08-23T03:37:30.654Z,21.30
2018-08-23T03:39:59.999Z,21.40
2018-08-23T03:42:29.294Z,21.50
2018-08-23T03:44:59.222Z,21.40
2018-08-23T03:47:36.163Z,21.40
2018-08-23T03:50:05.703Z,21.40
2018-08-23T03:52:41.870Z,21.40
2018-08-23T03:55:11.873Z,21.40
2018-08-23T03:57:46.348Z,21.40
2018-08-23T04:00:15.465Z,21.40
2018-08-23T04:02:45.314Z,21.50
2018-08-23T04:05:19.586Z,21.40
2018-08-23T04:07:48.726Z,21.30
2018-08-23T04:10:17.926Z,21.50
2018-08-23T04:12:47.111Z,21.40
2018-08-23T04:15:24.538Z,21.40
2018-08-23T04:17:53.630Z,21.30
2018-08-23T04:20:22.806Z,21.40
2018-08-23T04:22:52.014Z,21.40
2018-08-23T04:25:21.247Z,21.30
2018-08-23T04:27:50.474Z,21.30
2018-08-23T04:30:19.906Z,21.30
2018-08-23T04:32:49.772Z,21.40
2018-08-23T04:35:24.284Z,21.30
2018-08-23T04:37:53.370Z,21.40
2018-08-23T04:40:22.520Z,21.40
2018-08-23T04:42:51.719Z,21.40
2018-08-23T04:45:28.458Z,21.40
2018-08-23T04:48:05.950Z,21.50
2018-08-23T04:50:35.407Z,21.50
2018-08-23T04:53:04.765Z,21.50
2018-08-23T04:55:33.862Z,21.40
2018-08-23T04:58:03.682Z,21.50
2018-08-23T05:00:33.026Z,21.60
2018-08-23T05:03:02.255Z,21.60
2018-08-23T05:05:31.414Z,21.70
2018-08-23T05:08:00.565Z,21.70
2018-08-23T05:10:29.756Z,21.90
2018-08-23T05:12:58.936Z,21.90
2018-08-23T05:15:28.134Z,21.90
2018-08-23T05:17:57.363Z,21.80
2018-08-23T05:20:27.368Z,21.90
2018-08-23T05:23:01.835Z,22.00
2018-08-23T05:25:30.921Z,22.00
2018-08-23T05:28:11.310Z,22.10
2018-08-23T05:30:41.922Z,22.20
2018-08-23T05:33:13.083Z,22.30
2018-08-23T05:35:42.572Z,22.30
2018-08-23T05:38:12.316Z,22.30
2018-08-23T05:40:44.483Z,22.30
2018-08-23T05:43:14.294Z,22.40
2018-08-23T05:45:47.517Z,22.50
2018-08-23T05:48:23.313Z,22.70
2018-08-23T05:50:52.667Z,22.80
2018-08-23T05:53:21.877Z,22.90
2018-08-23T05:55:52.684Z,22.90
2018-08-23T05:58:24.987Z,23.10
2018-08-23T06:00:54.363Z,23.30
2018-08-23T06:03:23.471Z,23.20
2018-08-23T06:05:52.884Z,23.30
2018-08-23T06:08:22.221Z,23.30
2018-08-23T06:10:56.539Z,23.30
2018-08-23T06:13:25.855Z,23.30
2018-08-23T06:15:56.218Z,23.20
2018-08-23T06:18:26.249Z,23.30
2018-08-23T06:21:01.749Z,23.60
2018-08-23T06:24:12.156Z,23.50
2018-08-23T06:26:47.475Z,23.60
2018-08-23T06:29:24.302Z,23.60
2018-08-23T06:31:59.855Z,23.70
2018-08-23T06:34:30.634Z,23.70
2018-08-23T06:36:59.870Z,23.70
2018-08-23T06:39:29.085Z,23.80
2018-08-23T06:42:00.485Z,23.70
2018-08-23T06:44:41.013Z,23.70
2018-08-23T06:47:12.293Z,23.80
2018-08-23T06:49:42.459Z,23.80
2018-08-23T06:52:16.858Z,23.80
2018-08-23T06:54:48.039Z,23.90
2018-08-23T06:57:18.121Z,23.90
2018-08-23T06:59:48.206Z,23.90
2018-08-23T07:02:18.202Z,24.00
2018-08-23T07:04:48.287Z,24.20
2018-08-23T07:07:19.119Z,24.10
2018-08-23T07:09:48.154Z,24.20
2018-08-23T07:12:18.334Z,24.30
2018-08-23T07:14:49.594Z,24.40
2018-08-23T07:17:24.163Z,24.30
2018-08-23T07:19:53.594Z,24.40
2018-08-23T07:22:25.919Z,24.60
2018-08-23T07:24:56.738Z,24.60
2018-08-23T07:27:27.036Z,24.60
2018-08-23T07:29:57.524Z,24.60
2018-08-23T07:32:29.038Z,24.60
2018-08-23T07:35:18.187Z,24.80
2018-08-23T07:37:50.674Z,24.90
2018-08-23T07:40:20.902Z,25.00
2018-08-23T07:42:51.334Z,25.00
2018-08-23T07:45:20.486Z,25.00
2018-08-23T07:47:51.978Z,25.20
2018-08-23T07:50:21.178Z,25.30
2018-08-23T07:52:51.712Z,25.40
2018-08-23T07:55:20.807Z,25.40
2018-08-23T07:57:49.963Z,25.50
2018-08-23T08:00:29.109Z,25.50
2018-08-23T08:02:58.383Z,25.40
2018-08-23T08:05:29.602Z,25.70
2018-08-23T08:07:58.762Z,25.70
2018-08-23T08:10:34.791Z,25.70
2018-08-23T08:13:04.020Z,25.70
2018-08-23T08:15:33.144Z,25.80
2018-08-23T08:18:12.031Z,25.70
2018-08-23T08:20:41.317Z,25.70
2018-08-23T08:23:10.502Z,25.60
2018-08-23T08:25:40.033Z,25.60
2018-08-23T08:28:15.170Z,25.80
2018-08-23T08:30:45.865Z,25.90
2018-08-23T08:33:20.269Z,25.90
2018-08-23T08:35:49.335Z,26.00
2018-08-23T08:38:19.062Z,26.10
2018-08-23T08:40:52.301Z,26.20
2018-08-23T08:43:21.468Z,26.30
2018-08-23T08:46:01.074Z,26.50
2018-08-23T08:48:31.572Z,26.60
2018-08-23T08:51:21.394Z,26.40
2018-08-23T08:53:50.950Z,26.60
2018-08-23T08:56:27.546Z,26.60
2018-08-23T08:58:56.638Z,26.60
2018-08-23T09:01:32.691Z,27.00
2018-08-23T09:04:02.063Z,27.10
2018-08-23T09:06:36.481Z,27.30
2018-08-23T09:09:23.294Z,27.40
2018-08-23T09:11:52.438Z,27.50
2018-08-23T09:14:21.593Z,27.70
2018-08-23T09:16:50.699Z,27.60
2018-08-23T09:19:19.882Z,27.50
2018-08-23T09:22:01.198Z,27.40
2018-08-23T09:24:30.393Z,27.50
2018-08-23T09:26:59.602Z,27.60
2018-08-23T09:29:37.818Z,27.60
2018-08-23T09:32:19.720Z,27.70
2018-08-23T09:34:50.114Z,27.60
2018-08-23T09:37:19.646Z,28.10
2018-08-23T09:39:49.598Z,28.30
2018-08-23T09:42:19.669Z,28.40
2018-08-23T09:45:05.562Z,28.60
2018-08-23T09:47:34.804Z,28.40
2018-08-23T09:50:03.922Z,28.30
2018-08-23T09:52:35.215Z,28.30
2018-08-23T09:55:04.307Z,28.40
2018-08-23T09:57:33.490Z,28.70
2018-08-23T10:00:02.710Z,28.90
2018-08-23T10:02:37.122Z,29.10
2018-08-23T10:05:07.660Z,29.10
2018-08-23T10:07:42.127Z,29.20
2018-08-23T10:10:16.543Z,28.90
2018-08-23T10:12:50.926Z,28.90
2018-08-23T10:15:25.522Z,28.80
2018-08-23T10:18:00.134Z,28.70
2018-08-23T10:20:34.671Z,28.80
2018-08-23T10:23:09.211Z,28.60
2018-08-23T10:25:43.038Z,28.60
2018-08-23T10:28:14.190Z,28.80
2018-08-23T10:30:43.678Z,28.80
2018-08-23T10:33:12.842Z,29.00
2018-08-23T10:35:47.302Z,29.10
2018-08-23T10:38:20.331Z,29.30
2018-08-23T10:40:51.196Z,29.20
2018-08-23T10:43:25.580Z,29.50
2018-08-23T10:45:56.615Z,29.70
2018-08-23T10:48:25.780Z,29.70
2018-08-23T10:50:54.975Z,29.70
2018-08-23T10:53:24.158Z,29.50
2018-08-23T10:55:53.377Z,29.40
2018-08-23T10:58:22.573Z,29.40
2018-08-23T11:00:51.754Z,29.30
2018-08-23T11:03:20.934Z,28.90
2018-08-23T11:05:50.223Z,28.60
2018-08-23T11:08:24.038Z,28.40
2018-08-23T11:10:58.462Z,28.60
2018-08-23T11:13:32.886Z,29.40
2018-08-23T11:16:07.362Z,30.30
2018-08-23T11:18:41.848Z,30.20
2018-08-23T11:21:15.894Z,29.60
2018-08-23T11:23:45.854Z,29.10
2018-08-23T11:26:20.065Z,28.70
2018-08-23T11:28:50.807Z,28.80
2018-08-23T11:31:25.652Z,28.70
2018-08-23T11:33:55.594Z,28.90
2018-08-23T11:36:24.765Z,30.00
2018-08-23T11:38:54.058Z,30.80
2018-08-23T11:41:23.170Z,31.70
2018-08-23T11:43:52.362Z,31.90
2018-08-23T11:46:22.379Z,31.70
2018-08-23T11:48:51.560Z,31.20
2018-08-23T11:51:20.773Z,30.50
2018-08-23T11:53:50.823Z,30.60
2018-08-23T11:56:20.782Z,29.40
2018-08-23T11:58:50.802Z,28.90
2018-08-23T12:01:20.854Z,28.70
2018-08-23T12:03:50.824Z,28.80
2018-08-23T12:06:20.912Z,29.60
2018-08-23T12:08:50.815Z,30.20
2018-08-23T12:11:20.887Z,30.50
2018-08-23T12:13:51.375Z,30.90
2018-08-23T12:16:20.963Z,31.50
2018-08-23T12:18:50.958Z,32.30
2018-08-23T12:21:20.923Z,32.90
2018-08-23T12:23:51.058Z,33.30
2018-08-23T12:26:21.120Z,32.90
2018-08-23T12:28:56.327Z,33.10
2018-08-23T12:31:25.478Z,32.70
2018-08-23T12:33:54.673Z,32.80
2018-08-23T12:36:29.296Z,33.30
2018-08-23T12:39:03.689Z,33.10
2018-08-23T12:41:38.107Z,33.20
2018-08-23T12:44:07.253Z,33.00
2018-08-23T12:46:36.502Z,32.90
2018-08-23T12:49:05.670Z,33.00
2018-08-23T12:51:34.844Z,33.30
2018-08-23T12:54:04.089Z,33.10
2018-08-23T12:56:33.242Z,33.50
2018-08-23T12:59:02.381Z,33.60
2018-08-23T13:01:31.574Z,34.00
2018-08-23T13:04:00.861Z,33.60
2018-08-23T13:06:29.982Z,33.40
2018-08-23T13:08:59.070Z,33.80
2018-08-23T13:11:28.281Z,33.40
2018-08-23T13:13:57.406Z,34.00
2018-08-23T13:16:27.458Z,34.50
2018-08-23T13:18:56.690Z,34.50
2018-08-23T13:21:25.875Z,35.10
2018-08-23T13:23:55.099Z,34.40
2018-08-23T13:26:28.382Z,32.70
2018-08-23T13:28:57.578Z,32.10
2018-08-23T13:31:27.541Z,32.00
2018-08-23T13:33:56.766Z,31.30
2018-08-23T13:36:26.001Z,30.80
2018-08-23T13:38:55.136Z,30.10
2018-08-23T13:41:24.378Z,29.80
2018-08-23T13:43:53.554Z,29.90
2018-08-23T13:46:22.737Z,30.10
2018-08-23T13:48:51.846Z,30.00
2018-08-23T13:51:21.679Z,30.10
2018-08-23T13:53:51.938Z,30.10
2018-08-23T13:56:22.346Z,29.90
2018-08-23T13:58:52.363Z,29.90
2018-08-23T14:01:25.235Z,29.80
2018-08-23T14:03:55.463Z,29.70
2018-08-23T14:06:24.771Z,30.30
2018-08-23T14:08:53.853Z,30.50
2018-08-23T14:11:23.058Z,30.30
2018-08-23T14:13:52.246Z,30.40
2018-08-23T14:16:22.108Z,30.80
2018-08-23T14:18:52.036Z,30.10
2018-08-23T14:21:22.122Z,29.60
2018-08-23T14:23:52.131Z,29.60
2018-08-23T14:26:22.259Z,29.90
2018-08-23T14:28:52.183Z,30.10
2018-08-23T14:31:22.166Z,30.00
2018-08-23T14:33:52.125Z,30.00
2018-08-23T14:36:22.250Z,29.60
2018-08-23T14:38:52.220Z,29.50
2018-08-23T14:41:22.195Z,29.40
2018-08-23T14:43:52.302Z,29.00
2018-08-23T14:46:27.460Z,28.80
2018-08-23T14:48:56.636Z,28.60
2018-08-23T14:51:25.806Z,28.40
2018-08-23T14:53:54.986Z,28.40
2018-08-23T14:56:29.272Z,28.10
2018-08-23T14:58:58.506Z,28.10
2018-08-23T15:01:27.563Z,28.00
2018-08-23T15:03:56.774Z,27.90
2018-08-23T15:06:25.986Z,27.90
2018-08-23T15:08:55.206Z,27.70
2018-08-23T15:11:24.382Z,27.80
2018-08-23T15:13:53.515Z,28.00
2018-08-23T15:16:22.753Z,27.40
2018-08-23T15:18:52.683Z,27.00
2018-08-23T15:21:23.546Z,26.70
2018-08-23T15:23:52.820Z,26.20
2018-08-23T15:26:22.669Z,26.00
2018-08-23T15:28:52.738Z,25.70
2018-08-23T15:31:22.695Z,25.10
2018-08-23T15:33:52.862Z,24.50
2018-08-23T15:36:22.698Z,24.30
2018-08-23T15:38:52.883Z,24.00
2018-08-23T15:41:22.848Z,23.60
2018-08-23T15:43:52.914Z,23.40
2018-08-23T15:46:24.467Z,23.30
2018-08-23T15:48:53.629Z,23.30
2018-08-23T15:51:22.993Z,23.20
2018-08-23T15:53:52.895Z,23.20
2018-08-23T15:56:23.016Z,23.30
2018-08-23T15:58:53.244Z,23.20
2018-08-23T16:01:22.871Z,23.30
2018-08-23T16:03:52.882Z,23.30
2018-08-23T16:06:22.899Z,23.50
2018-08-23T16:08:59.254Z,23.30
2018-08-23T16:11:28.450Z,23.50
2018-08-23T16:13:57.578Z,23.60
2018-08-23T16:16:32.838Z,23.60
2018-08-23T16:19:07.323Z,23.50
2018-08-23T16:21:38.602Z,23.40
2018-08-23T16:24:07.602Z,23.60
2018-08-23T16:26:42.047Z,23.80
2018-08-23T16:29:11.144Z,24.00
2018-08-23T16:31:40.339Z,24.20
2018-08-23T16:34:09.486Z,24.40
2018-08-23T16:36:38.585Z,24.50
2018-08-23T16:39:08.585Z,24.40
2018-08-23T16:41:37.850Z,24.50
2018-08-23T16:44:06.894Z,24.80
2018-08-23T16:46:36.149Z,24.80
2018-08-23T16:49:05.265Z,24.90
2018-08-23T16:51:34.392Z,24.80
2018-08-23T16:54:03.525Z,24.80
2018-08-23T16:56:32.695Z,24.80
2018-08-23T16:59:01.899Z,24.90
2018-08-23T17:01:31.147Z,24.80
2018-08-23T17:04:00.383Z,24.70
2018-08-23T17:06:29.826Z,24.70
2018-08-23T17:08:58.974Z,24.70
2018-08-23T17:11:28.118Z,24.90
2018-08-23T17:13:57.337Z,24.70
2018-08-23T17:16:32.561Z,24.80
2018-08-23T17:19:01.795Z,24.80
2018-08-23T17:21:31.074Z,24.70
2018-08-23T17:24:00.290Z,24.50
2018-08-23T17:26:29.438Z,24.80
2018-08-23T17:28:58.598Z,24.60
2018-08-23T17:31:27.758Z,24.60
2018-08-23T17:33:56.907Z,24.70
2018-08-23T17:36:26.122Z,24.70
2018-08-23T17:38:55.274Z,24.70
2018-08-23T17:41:24.490Z,24.70
2018-08-23T17:43:53.903Z,24.50
2018-08-23T17:46:23.907Z,24.50
2018-08-23T17:48:53.946Z,24.40
2018-08-23T17:51:23.883Z,24.30
2018-08-23T17:53:53.942Z,24.10
2018-08-23T17:56:23.978Z,24.10
2018-08-23T17:58:53.962Z,24.10
2018-08-23T18:01:24.043Z,23.90
2018-08-23T18:03:54.010Z,23.90
2018-08-23T18:06:24.120Z,23.90
2018-08-23T18:08:54.063Z,23.80
2018-08-23T18:11:24.138Z,23.90
2018-08-23T18:13:54.026Z,23.90
2018-08-23T18:16:29.282Z,23.90
2018-08-23T18:18:58.515Z,23.90
2018-08-23T18:21:27.677Z,23.80
2018-08-23T18:23:56.786Z,23.80
2018-08-23T18:26:25.934Z,24.00
2018-08-23T18:28:55.246Z,24.10
2018-08-23T18:31:24.430Z,24.30
2018-08-23T18:33:54.279Z,24.30
2018-08-23T18:36:24.226Z,24.30
2018-08-23T18:38:54.387Z,24.20
2018-08-23T18:41:24.476Z,24.20
2018-08-23T18:43:54.419Z,24.10
2018-08-23T18:46:24.606Z,24.00
2018-08-23T18:48:57.668Z,24.00
2018-08-23T18:51:29.058Z,24.00
2018-08-23T18:53:58.939Z,23.80
2018-08-23T18:56:29.011Z,23.70
2018-08-23T18:58:58.514Z,23.90
2018-08-23T19:01:27.597Z,23.90
2018-08-23T19:03:57.050Z,23.90
2018-08-23T19:06:32.678Z,24.00
2018-08-23T19:09:01.827Z,23.90
2018-08-23T19:11:31.093Z,23.90
2018-08-23T19:14:00.171Z,23.70
2018-08-23T19:16:34.621Z,23.50
2018-08-23T19:19:03.908Z,23.30
2018-08-23T19:21:33.142Z,23.20
2018-08-23T19:24:02.417Z,23.10
2018-08-23T19:26:32.354Z,23.10
2018-08-23T19:29:01.590Z,23.20
2018-08-23T19:31:30.711Z,23.20
2018-08-23T19:33:59.863Z,23.10
2018-08-23T19:36:28.982Z,23.10
2018-08-23T19:38:58.155Z,23.10
2018-08-23T19:41:27.403Z,23.00
2018-08-23T19:43:56.510Z,22.90
2018-08-23T19:46:30.884Z,22.90
2018-08-23T19:49:05.251Z,23.00
2018-08-23T19:51:34.509Z,23.00
2018-08-23T19:54:03.646Z,22.90
2018-08-23T19:56:32.867Z,22.90
2018-08-23T19:59:02.099Z,23.00
2018-08-23T20:01:31.484Z,23.00
2018-08-23T20:04:00.594Z,22.90
2018-08-23T20:06:29.752Z,22.90
2018-08-23T20:08:58.782Z,22.90
2018-08-23T20:11:27.968Z,23.00
2018-08-23T20:13:57.231Z,22.80
2018-08-23T20:16:27.233Z,22.90
2018-08-23T20:18:56.468Z,22.80
2018-08-23T20:21:25.631Z,22.70
2018-08-23T20:23:55.305Z,22.60
2018-08-23T20:26:25.355Z,22.60
2018-08-23T20:28:55.372Z,22.50
2018-08-23T20:31:25.350Z,22.40
2018-08-23T20:33:55.457Z,22.40
2018-08-23T20:36:25.466Z,22.40
2018-08-23T20:38:55.495Z,22.30
2018-08-23T20:41:25.498Z,22.30
2018-08-23T20:43:55.497Z,22.30
2018-08-23T20:46:25.488Z,22.30
2018-08-23T20:48:55.483Z,22.30
2018-08-23T20:51:25.598Z,22.40
2018-08-23T20:53:55.899Z,22.40
2018-08-23T20:56:25.698Z,22.20
2018-08-23T20:58:55.718Z,22.20
2018-08-23T21:01:25.834Z,22.20
2018-08-23T21:03:55.558Z,22.20
2018-08-23T21:06:25.870Z,22.20
2018-08-23T21:08:55.886Z,22.30
2018-08-23T21:11:25.801Z,22.40
2018-08-23T21:13:55.767Z,22.30
2018-08-23T21:16:25.918Z,22.20
2018-08-23T21:18:55.865Z,22.40
2018-08-23T21:21:25.871Z,22.30
2018-08-23T21:23:55.890Z,22.20
2018-08-23T21:26:25.929Z,22.20
2018-08-23T21:28:55.969Z,22.00
2018-08-23T21:31:25.974Z,22.00
2018-08-23T21:33:55.987Z,21.80
2018-08-23T21:36:27.102Z,22.10
2018-08-23T21:38:56.299Z,22.10
2018-08-23T21:41:26.098Z,21.90
2018-08-23T21:43:56.263Z,21.70
2018-08-23T21:46:27.283Z,21.70
2018-08-23T21:48:56.687Z,21.80
2018-08-23T21:51:27.587Z,21.80
2018-08-23T21:53:56.726Z,21.90
2018-08-23T21:56:26.234Z,22.00
2018-08-23T21:58:56.348Z,22.10
2018-08-23T22:01:27.478Z,22.10
2018-08-23T22:03:56.649Z,22.20
2018-08-23T22:11:23.324Z,21.60
2018-08-23T22:13:52.461Z,21.50
2018-08-23T22:16:21.637Z,21.60
2018-08-23T22:18:50.936Z,21.70
2018-08-23T22:21:20.186Z,21.90
2018-08-23T22:23:49.400Z,21.90
2018-08-23T22:26:18.532Z,21.80
2018-08-23T22:28:47.746Z,21.60
2018-08-23T22:31:16.927Z,21.60
2018-08-23T22:33:46.162Z,21.50
2018-08-23T22:36:15.475Z,21.40
2018-08-23T22:38:44.692Z,21.50
2018-08-23T22:41:13.766Z,21.50
2018-08-23T22:43:42.913Z,21.50
2018-08-23T22:46:12.050Z,21.40
2018-08-23T22:48:41.287Z,21.50
2018-08-23T22:51:10.422Z,21.40
2018-08-23T22:53:39.642Z,21.40
2018-08-23T22:56:08.890Z,21.40
2018-08-23T22:58:38.081Z,21.30
2018-08-23T23:01:07.303Z,21.30
2018-08-23T23:03:41.850Z,21.50
2018-08-23T23:06:10.935Z,21.40
2018-08-23T23:08:40.155Z,21.50
2018-08-23T23:11:09.338Z,21.40
2018-08-23T23:13:38.547Z,21.30
2018-08-23T23:16:07.760Z,21.20
2018-08-23T23:18:36.883Z,21.20
2018-08-23T23:21:06.100Z,21.20
2018-08-23T23:23:35.178Z,21.20
2018-08-23T23:26:04.314Z,21.10
2018-08-23T23:28:33.570Z,21.20
2018-08-23T23:31:02.796Z,21.00
2018-08-23T23:33:31.930Z,21.20
2018-08-23T23:36:01.105Z,21.40
2018-08-23T23:38:30.310Z,21.20
2018-08-23T23:40:59.518Z,21.00
2018-08-23T23:43:28.758Z,21.00
2018-08-23T23:45:57.944Z,21.00
2018-08-23T23:48:28.578Z,21.20
2018-08-23T23:50:57.658Z,21.30
2018-08-23T23:53:28.377Z,21.40
2018-08-23T23:55:57.590Z,21.20
2018-08-23T23:58:28.559Z,21.30
